Thomasville, PA

8:23 PM EDT on September 30, 2014 (GMT -0400)
York | Change Station
CLOSE
Current Station
Airport
Location: York,
Elevation: 479 ft
Nearby Weather Stations

Elev 479 ft 39.92 °N, 76.87 °W | Updated 30 minutes ago

Mostly Cloudy
Mostly Cloudy
65 °F
Feels Like 65 °F
N
0
Wind Variable Wind from North

Today
High -- | Low -- °F
--% Chance of Precip.
Yesterday
High -- | Low -- °F
Precip. -- in
7:02 AM 6:51 PM
Waxing Crescent, 41% visible
Pressure 29.91 in
Visibility 10.0 miles
Clouds Mostly Cloudy 6500 ft
Dew Point 60 °F
Humidity 84%
Rainfall 0.00 in
Snow Depth Not available.
UV 0 out of 12
Pollen 2.50 out of 12
Ozone Good
PM2.5 Moderate
Flu Activity Not available.
METAR KTHV 302353Z AUTO 00000KT 10SM BKN065 18/16 A2991 RMK AO2 LTG DSNT W AND NW SLP127 T01830156 10233 20183 53013

More Conditions Fewer Conditions

Pressure 29.91 in
Visibility 10.0 miles
Clouds Mostly Cloudy 6500 ft
Dew Point 60 °F
Humidity 84%
Rainfall 0.00 in
Snow Depth Not available.
UV 0 out of 12
Pollen 2.50 out of 12
Ozone Good
PM2.5 Moderate
Flu Activity Not available.
METAR KTHV 302353Z AUTO 00000KT 10SM BKN065 18/16 A2991 RMK AO2 LTG DSNT W AND NW SLP127 T01830156 10233 20183 53013

More Conditions Fewer Conditions

Nowcast | as of 8:11 PM EDT on September 30, 2014

Scattered showers and possibly a thunderstorm are possible as the evening progresses. A localized donwpour is possible.

×

10-Day Weather Forecast

Almanac

Astronomy

Sep. 30, 2014 Rise Set
Actual Time 7:02 AM EDT 6:51 PM EDT
Civil Twilight 6:35 AM EDT 7:18 PM EDT
Nautical Twilight 6:04 AM EDT 7:49 PM EDT
Astronomical Twilight 5:32 AM EDT 8:21 PM EDT
Moon 1:08 PM EDT (9/30) 11:19 PM EDT (9/30)
Length of Visible Light 12h 42m
Length of Day
11h 48m
Tomorrow will be 2m 36s shorter.
Waxing Crescent, 41% of the Moon is Illuminated
Today
Waxing Crescent
Oct 1
First Quarter
Oct 8
Full
Oct 15
Last Quarter
Oct 23
New

Today's Extremes

State Highs State Lows

Community

WunderPhotos

Upload Photos

1,757,792 photos uploaded!

Nearby

Air Quality

  Air Quality AQ Index Pollutant
Yesterday Moderate
PM2.5
Yesterday Good
OZONE
Current Moderate
PM2.5
Current Good
OZONE
Tuesday Moderate
PM2.5
Wednesday Moderate
PM2.5
Thursday Moderate
PM2.5

Snow Depth

Station Depth Elevation
No new snow has been reported.

Earthquake Activity

City Distance Mag. Time & Date
No recent earthquake activity has been reported nearby.
Minimum magnitude displayed is 2.5.

Coastal Water Temperatures

Place Temperature
No Stations Reporting

Nearby Weather Stations